sensor_id;sensor_type;location;lat;lon;timestamp;P1;durP1;ratioP1;P2;durP2;ratioP2
22284;SDS011;11311;52.192;20.900;2023-03-13T00:01:19;22.23;;;11.55;;
22284;SDS011;11311;52.192;20.900;2023-03-13T00:03:49;19.70;;;12.23;;
22284;SDS011;11311;52.192;20.900;2023-03-13T00:06:21;17.75;;;9.15;;
22284;SDS011;11311;52.192;20.900;2023-03-13T00:08:51;20.40;;;9.88;;
22284;SDS011;11311;52.192;20.900;2023-03-13T00:11:21;20.05;;;9.73;;
22284;SDS011;11311;52.192;20.900;2023-03-13T00:13:52;18.25;;;8.80;;
22284;SDS011;11311;52.192;20.900;2023-03-13T00:16:21;19.23;;;10.63;;
22284;SDS011;11311;52.192;20.900;2023-03-13T00:18:51;18.75;;;10.77;;
22284;SDS011;11311;52.192;20.900;2023-03-13T00:23:50;13.98;;;5.80;;
22284;SDS011;11311;52.192;20.900;2023-03-13T00:26:20;14.88;;;8.85;;
22284;SDS011;11311;52.192;20.900;2023-03-13T00:28:51;15.05;;;8.65;;
22284;SDS011;11311;52.192;20.900;2023-03-13T00:31:21;10.50;;;6.07;;
22284;SDS011;11311;52.192;20.900;2023-03-13T00:36:21;11.88;;;8.02;;
22284;SDS011;11311;52.192;20.900;2023-03-13T00:38:51;15.23;;;8.13;;
22284;SDS011;11311;52.192;20.900;2023-03-13T00:41:23;8.55;;;5.65;;
22284;SDS011;11311;52.192;20.900;2023-03-13T00:43:53;17.15;;;8.60;;
22284;SDS011;11311;52.192;20.900;2023-03-13T00:46:23;14.48;;;8.25;;
22284;SDS011;11311;52.192;20.900;2023-03-13T00:48:53;19.20;;;8.85;;
22284;SDS011;11311;52.192;20.900;2023-03-13T00:51:22;11.38;;;6.97;;
22284;SDS011;11311;52.192;20.900;2023-03-13T00:53:54;14.93;;;8.10;;
22284;SDS011;11311;52.192;20.900;2023-03-13T00:56:27;11.55;;;8.27;;
22284;SDS011;11311;52.192;20.900;2023-03-13T00:58:58;16.60;;;8.27;;
22284;SDS011;11311;52.192;20.900;2023-03-13T01:01:29;18.30;;;8.02;;
22284;SDS011;11311;52.192;20.900;2023-03-13T01:04:00;13.00;;;8.07;;
22284;SDS011;11311;52.192;20.900;2023-03-13T01:06:31;14.70;;;8.93;;
22284;SDS011;11311;52.192;20.900;2023-03-13T01:09:02;14.80;;;8.27;;
22284;SDS011;11311;52.192;20.900;2023-03-13T01:11:33;16.85;;;8.60;;
22284;SDS011;11311;52.192;20.900;2023-03-13T01:14:04;13.10;;;7.20;;
22284;SDS011;11311;52.192;20.900;2023-03-13T01:16:34;12.27;;;7.82;;
22284;SDS011;11311;52.192;20.900;2023-03-13T01:19:05;18.60;;;10.27;;
22284;SDS011;11311;52.192;20.900;2023-03-13T01:21:39;16.52;;;10.07;;
22284;SDS011;11311;52.192;20.900;2023-03-13T01:24:08;19.95;;;11.15;;
22284;SDS011;11311;52.192;20.900;2023-03-13T01:26:39;9.23;;;6.72;;
22284;SDS011;11311;52.192;20.900;2023-03-13T01:29:08;17.27;;;9.07;;
22284;SDS011;11311;52.192;20.900;2023-03-13T01:31:39;15.73;;;9.10;;
22284;SDS011;11311;52.192;20.900;2023-03-13T01:34:09;18.30;;;9.20;;
22284;SDS011;11311;52.192;20.900;2023-03-13T01:36:38;13.88;;;8.45;;
22284;SDS011;11311;52.192;20.900;2023-03-13T01:39:07;13.80;;;8.98;;
22284;SDS011;11311;52.192;20.900;2023-03-13T01:41:36;18.40;;;8.02;;
22284;SDS011;11311;52.192;20.900;2023-03-13T01:44:08;10.70;;;7.90;;
22284;SDS011;11311;52.192;20.900;2023-03-13T01:46:49;13.88;;;9.48;;
22284;SDS011;11311;52.192;20.900;2023-03-13T01:49:24;13.88;;;8.35;;
22284;SDS011;11311;52.192;20.900;2023-03-13T01:52:09;14.75;;;8.90;;
22284;SDS011;11311;52.192;20.900;2023-03-13T01:54:50;13.80;;;5.93;;
22284;SDS011;11311;52.192;20.900;2023-03-13T01:57:22;14.45;;;8.63;;
22284;SDS011;11311;52.192;20.900;2023-03-13T01:59:54;12.85;;;5.65;;
22284;SDS011;11311;52.192;20.900;2023-03-13T02:02:27;7.70;;;4.97;;
22284;SDS011;11311;52.192;20.900;2023-03-13T02:04:59;12.98;;;8.02;;
22284;SDS011;11311;52.192;20.900;2023-03-13T02:07:29;16.40;;;8.63;;
22284;SDS011;11311;52.192;20.900;2023-03-13T02:10:00;12.73;;;6.50;;
22284;SDS011;11311;52.192;20.900;2023-03-13T02:12:31;16.63;;;10.00;;
22284;SDS011;11311;52.192;20.900;2023-03-13T02:15:03;14.90;;;8.93;;
22284;SDS011;11311;52.192;20.900;2023-03-13T02:17:34;15.63;;;7.40;;
22284;SDS011;11311;52.192;20.900;2023-03-13T02:20:04;17.67;;;10.82;;
22284;SDS011;11311;52.192;20.900;2023-03-13T02:22:34;11.20;;;7.07;;
22284;SDS011;11311;52.192;20.900;2023-03-13T02:25:08;12.60;;;7.68;;
22284;SDS011;11311;52.192;20.900;2023-03-13T02:27:44;14.55;;;8.30;;
22284;SDS011;11311;52.192;20.900;2023-03-13T02:30:13;16.40;;;8.45;;
22284;SDS011;11311;52.192;20.900;2023-03-13T02:32:43;20.80;;;8.87;;
22284;SDS011;11311;52.192;20.900;2023-03-13T02:35:15;16.23;;;10.70;;
22284;SDS011;11311;52.192;20.900;2023-03-13T02:37:46;16.75;;;7.97;;
22284;SDS011;11311;52.192;20.900;2023-03-13T02:40:20;14.35;;;9.40;;
22284;SDS011;11311;52.192;20.900;2023-03-13T02:42:53;21.05;;;9.90;;
22284;SDS011;11311;52.192;20.900;2023-03-13T02:45:22;19.55;;;11.38;;
22284;SDS011;11311;52.192;20.900;2023-03-13T02:47:51;15.18;;;9.50;;
22284;SDS011;11311;52.192;20.900;2023-03-13T02:50:20;13.27;;;10.13;;
22284;SDS011;11311;52.192;20.900;2023-03-13T02:52:51;20.70;;;11.38;;
22284;SDS011;11311;52.192;20.900;2023-03-13T02:55:23;21.35;;;12.23;;
22284;SDS011;11311;52.192;20.900;2023-03-13T02:57:56;17.65;;;10.60;;
22284;SDS011;11311;52.192;20.900;2023-03-13T03:00:27;18.13;;;11.48;;
22284;SDS011;11311;52.192;20.900;2023-03-13T03:02:57;17.98;;;9.68;;
22284;SDS011;11311;52.192;20.900;2023-03-13T03:05:26;16.58;;;7.28;;
22284;SDS011;11311;52.192;20.900;2023-03-13T03:10:26;14.98;;;10.00;;
22284;SDS011;11311;52.192;20.900;2023-03-13T03:12:57;15.10;;;10.13;;
22284;SDS011;11311;52.192;20.900;2023-03-13T03:15:26;18.45;;;11.43;;
22284;SDS011;11311;52.192;20.900;2023-03-13T03:17:55;17.35;;;10.10;;
22284;SDS011;11311;52.192;20.900;2023-03-13T03:20:24;20.92;;;12.70;;
22284;SDS011;11311;52.192;20.900;2023-03-13T03:22:53;14.98;;;8.98;;
22284;SDS011;11311;52.192;20.900;2023-03-13T03:25:22;15.77;;;9.55;;
22284;SDS011;11311;52.192;20.900;2023-03-13T03:27:52;20.35;;;11.68;;
22284;SDS011;11311;52.192;20.900;2023-03-13T03:30:23;15.52;;;9.82;;
22284;SDS011;11311;52.192;20.900;2023-03-13T03:32:52;18.77;;;10.73;;
22284;SDS011;11311;52.192;20.900;2023-03-13T03:35:22;25.60;;;11.88;;
22284;SDS011;11311;52.192;20.900;2023-03-13T03:37:50;18.25;;;12.18;;
22284;SDS011;11311;52.192;20.900;2023-03-13T03:40:20;22.07;;;12.50;;
22284;SDS011;11311;52.192;20.900;2023-03-13T03:42:49;16.33;;;10.27;;
22284;SDS011;11311;52.192;20.900;2023-03-13T03:45:18;11.27;;;7.65;;
22284;SDS011;11311;52.192;20.900;2023-03-13T03:47:49;13.23;;;8.35;;
22284;SDS011;11311;52.192;20.900;2023-03-13T03:50:18;11.52;;;6.80;;
22284;SDS011;11311;52.192;20.900;2023-03-13T03:52:54;16.60;;;10.23;;
22284;SDS011;11311;52.192;20.900;2023-03-13T03:55:25;13.45;;;7.90;;
22284;SDS011;11311;52.192;20.900;2023-03-13T03:57:54;11.15;;;7.90;;
22284;SDS011;11311;52.192;20.900;2023-03-13T04:00:46;20.00;;;9.85;;
22284;SDS011;11311;52.192;20.900;2023-03-13T04:03:16;12.20;;;6.78;;
22284;SDS011;11311;52.192;20.900;2023-03-13T04:05:47;18.38;;;10.18;;
22284;SDS011;11311;52.192;20.900;2023-03-13T04:08:17;16.77;;;8.30;;
22284;SDS011;11311;52.192;20.900;2023-03-13T04:10:46;13.25;;;8.15;;
22284;SDS011;11311;52.192;20.900;2023-03-13T04:13:15;17.67;;;11.15;;
22284;SDS011;11311;52.192;20.900;2023-03-13T04:15:45;16.77;;;7.93;;
22284;SDS011;11311;52.192;20.900;2023-03-13T04:18:17;22.17;;;11.57;;
22284;SDS011;11311;52.192;20.900;2023-03-13T04:20:47;16.58;;;7.35;;
22284;SDS011;11311;52.192;20.900;2023-03-13T04:23:16;15.95;;;10.00;;
22284;SDS011;11311;52.192;20.900;2023-03-13T04:25:45;14.63;;;9.38;;
22284;SDS011;11311;52.192;20.900;2023-03-13T04:28:14;14.75;;;8.65;;
22284;SDS011;11311;52.192;20.900;2023-03-13T04:30:43;18.15;;;11.13;;
22284;SDS011;11311;52.192;20.900;2023-03-13T04:33:52;19.67;;;10.05;;
22284;SDS011;11311;52.192;20.900;2023-03-13T04:36:52;17.60;;;10.43;;
22284;SDS011;11311;52.192;20.900;2023-03-13T04:39:41;20.02;;;13.23;;
22284;SDS011;11311;52.192;20.900;2023-03-13T04:42:36;22.13;;;13.80;;
22284;SDS011;11311;52.192;20.900;2023-03-13T04:45:19;17.35;;;12.88;;
22284;SDS011;11311;52.192;20.900;2023-03-13T04:48:11;18.70;;;10.45;;
22284;SDS011;11311;52.192;20.900;2023-03-13T04:51:11;19.55;;;12.80;;
22284;SDS011;11311;52.192;20.900;2023-03-13T04:53:49;16.60;;;11.65;;
22284;SDS011;11311;52.192;20.900;2023-03-13T04:56:39;12.32;;;8.55;;
22284;SDS011;11311;52.192;20.900;2023-03-13T04:59:33;13.05;;;9.07;;
22284;SDS011;11311;52.192;20.900;2023-03-13T05:02:20;21.60;;;9.00;;
22284;SDS011;11311;52.192;20.900;2023-03-13T05:07:56;17.45;;;8.60;;
22284;SDS011;11311;52.192;20.900;2023-03-13T05:10:35;20.05;;;11.27;;
22284;SDS011;11311;52.192;20.900;2023-03-13T05:13:28;29.63;;;17.15;;
22284;SDS011;11311;52.192;20.900;2023-03-13T05:16:06;18.17;;;9.35;;
22284;SDS011;11311;52.192;20.900;2023-03-13T05:18:54;17.80;;;13.45;;
22284;SDS011;11311;52.192;20.900;2023-03-13T05:21:39;28.33;;;15.73;;
22284;SDS011;11311;52.192;20.900;2023-03-13T05:24:37;19.23;;;12.02;;
22284;SDS011;11311;52.192;20.900;2023-03-13T05:27:30;17.75;;;9.25;;
22284;SDS011;11311;52.192;20.900;2023-03-13T05:30:13;16.38;;;10.85;;
22284;SDS011;11311;52.192;20.900;2023-03-13T05:32:52;19.60;;;9.93;;
22284;SDS011;11311;52.192;20.900;2023-03-13T05:35:50;18.00;;;10.82;;
22284;SDS011;11311;52.192;20.900;2023-03-13T05:38:39;17.57;;;12.73;;
22284;SDS011;11311;52.192;20.900;2023-03-13T05:41:33;17.98;;;11.93;;
22284;SDS011;11311;52.192;20.900;2023-03-13T05:44:02;14.18;;;9.82;;
22284;SDS011;11311;52.192;20.900;2023-03-13T05:46:53;15.15;;;10.20;;
22284;SDS011;11311;52.192;20.900;2023-03-13T05:49:55;23.23;;;13.65;;
22284;SDS011;11311;52.192;20.900;2023-03-13T05:52:56;16.23;;;11.60;;
22284;SDS011;11311;52.192;20.900;2023-03-13T05:55:35;17.65;;;10.95;;
22284;SDS011;11311;52.192;20.900;2023-03-13T05:58:26;22.20;;;12.60;;
22284;SDS011;11311;52.192;20.900;2023-03-13T06:01:09;12.63;;;11.27;;
22284;SDS011;11311;52.192;20.900;2023-03-13T06:03:42;23.88;;;15.93;;
22284;SDS011;11311;52.192;20.900;2023-03-13T06:06:13;20.73;;;14.13;;
22284;SDS011;11311;52.192;20.900;2023-03-13T06:08:46;22.05;;;15.80;;
22284;SDS011;11311;52.192;20.900;2023-03-13T06:11:15;18.83;;;13.00;;
22284;SDS011;11311;52.192;20.900;2023-03-13T06:13:45;18.00;;;10.82;;
22284;SDS011;11311;52.192;20.900;2023-03-13T06:16:38;31.90;;;19.65;;
22284;SDS011;11311;52.192;20.900;2023-03-13T06:19:17;12.63;;;9.30;;
22284;SDS011;11311;52.192;20.900;2023-03-13T06:21:46;33.90;;;16.67;;
22284;SDS011;11311;52.192;20.900;2023-03-13T06:24:15;30.33;;;18.65;;
22284;SDS011;11311;52.192;20.900;2023-03-13T06:26:46;21.48;;;14.43;;
22284;SDS011;11311;52.192;20.900;2023-03-13T06:29:17;19.58;;;13.90;;
22284;SDS011;11311;52.192;20.900;2023-03-13T06:31:46;34.03;;;21.95;;
22284;SDS011;11311;52.192;20.900;2023-03-13T06:34:18;20.83;;;13.85;;
22284;SDS011;11311;52.192;20.900;2023-03-13T06:36:47;26.50;;;16.98;;
22284;SDS011;11311;52.192;20.900;2023-03-13T06:39:16;27.40;;;19.98;;
22284;SDS011;11311;52.192;20.900;2023-03-13T06:41:45;30.23;;;19.35;;
22284;SDS011;11311;52.192;20.900;2023-03-13T06:44:14;22.58;;;17.42;;
22284;SDS011;11311;52.192;20.900;2023-03-13T06:46:44;27.65;;;17.70;;
22284;SDS011;11311;52.192;20.900;2023-03-13T06:49:14;21.40;;;14.95;;
22284;SDS011;11311;52.192;20.900;2023-03-13T06:51:43;16.10;;;9.60;;
22284;SDS011;11311;52.192;20.900;2023-03-13T06:54:12;20.05;;;15.10;;
22284;SDS011;11311;52.192;20.900;2023-03-13T06:56:41;23.00;;;14.10;;
22284;SDS011;11311;52.192;20.900;2023-03-13T06:59:10;26.20;;;17.60;;
22284;SDS011;11311;52.192;20.900;2023-03-13T07:01:38;26.92;;;16.27;;
22284;SDS011;11311;52.192;20.900;2023-03-13T07:04:10;29.63;;;18.02;;
22284;SDS011;11311;52.192;20.900;2023-03-13T07:06:40;24.27;;;16.52;;
22284;SDS011;11311;52.192;20.900;2023-03-13T07:09:09;20.55;;;16.45;;
22284;SDS011;11311;52.192;20.900;2023-03-13T07:11:38;25.42;;;15.30;;
22284;SDS011;11311;52.192;20.900;2023-03-13T07:14:07;18.40;;;12.50;;
22284;SDS011;11311;52.192;20.900;2023-03-13T07:16:43;19.30;;;14.20;;
22284;SDS011;11311;52.192;20.900;2023-03-13T07:19:14;22.80;;;14.95;;
22284;SDS011;11311;52.192;20.900;2023-03-13T07:21:43;24.30;;;15.65;;
22284;SDS011;11311;52.192;20.900;2023-03-13T07:24:13;28.40;;;13.65;;
22284;SDS011;11311;52.192;20.900;2023-03-13T07:26:42;21.70;;;15.38;;
22284;SDS011;11311;52.192;20.900;2023-03-13T07:29:33;17.10;;;12.60;;
22284;SDS011;11311;52.192;20.900;2023-03-13T07:32:02;19.77;;;13.27;;
22284;SDS011;11311;52.192;20.900;2023-03-13T07:34:32;17.40;;;13.98;;
22284;SDS011;11311;52.192;20.900;2023-03-13T07:37:01;21.98;;;11.95;;
22284;SDS011;11311;52.192;20.900;2023-03-13T07:39:30;20.50;;;12.45;;
22284;SDS011;11311;52.192;20.900;2023-03-13T07:42:00;20.88;;;12.68;;
22284;SDS011;11311;52.192;20.900;2023-03-13T07:44:29;19.45;;;12.25;;
22284;SDS011;11311;52.192;20.900;2023-03-13T07:46:58;23.17;;;14.35;;
22284;SDS011;11311;52.192;20.900;2023-03-13T07:49:27;21.40;;;12.55;;
22284;SDS011;11311;52.192;20.900;2023-03-13T07:51:58;20.55;;;12.52;;
22284;SDS011;11311;52.192;20.900;2023-03-13T07:54:27;15.40;;;11.75;;
22284;SDS011;11311;52.192;20.900;2023-03-13T07:56:56;19.17;;;10.95;;
22284;SDS011;11311;52.192;20.900;2023-03-13T07:59:25;15.65;;;9.63;;
22284;SDS011;11311;52.192;20.900;2023-03-13T08:01:54;15.20;;;9.88;;
22284;SDS011;11311;52.192;20.900;2023-03-13T08:04:23;16.42;;;11.15;;
22284;SDS011;11311;52.192;20.900;2023-03-13T08:06:52;9.65;;;7.22;;
22284;SDS011;11311;52.192;20.900;2023-03-13T08:09:22;19.10;;;10.82;;
22284;SDS011;11311;52.192;20.900;2023-03-13T08:14:22;15.07;;;11.35;;
22284;SDS011;11311;52.192;20.900;2023-03-13T08:16:50;16.00;;;10.40;;
22284;SDS011;11311;52.192;20.900;2023-03-13T08:19:20;17.67;;;11.40;;
22284;SDS011;11311;52.192;20.900;2023-03-13T08:21:49;17.50;;;10.70;;
22284;SDS011;11311;52.192;20.900;2023-03-13T08:24:18;22.30;;;11.45;;
22284;SDS011;11311;52.192;20.900;2023-03-13T08:26:48;13.73;;;8.45;;
22284;SDS011;11311;52.192;20.900;2023-03-13T08:29:17;15.00;;;9.45;;
22284;SDS011;11311;52.192;20.900;2023-03-13T08:31:46;13.77;;;10.15;;
22284;SDS011;11311;52.192;20.900;2023-03-13T08:34:16;15.57;;;10.63;;
22284;SDS011;11311;52.192;20.900;2023-03-13T08:36:46;17.98;;;8.65;;
22284;SDS011;11311;52.192;20.900;2023-03-13T08:39:16;16.80;;;11.32;;
22284;SDS011;11311;52.192;20.900;2023-03-13T08:41:46;14.88;;;10.13;;
22284;SDS011;11311;52.192;20.900;2023-03-13T08:44:17;22.52;;;10.57;;
22284;SDS011;11311;52.192;20.900;2023-03-13T08:46:47;19.33;;;9.18;;
22284;SDS011;11311;52.192;20.900;2023-03-13T08:49:16;13.90;;;9.63;;
22284;SDS011;11311;52.192;20.900;2023-03-13T08:51:46;15.20;;;9.20;;
22284;SDS011;11311;52.192;20.900;2023-03-13T08:54:15;16.50;;;9.85;;
22284;SDS011;11311;52.192;20.900;2023-03-13T08:56:44;11.20;;;7.13;;
22284;SDS011;11311;52.192;20.900;2023-03-13T08:59:14;14.95;;;6.38;;
22284;SDS011;11311;52.192;20.900;2023-03-13T09:01:43;15.60;;;7.22;;
22284;SDS011;11311;52.192;20.900;2023-03-13T09:04:12;15.25;;;6.10;;
22284;SDS011;11311;52.192;20.900;2023-03-13T09:06:41;10.70;;;6.10;;
22284;SDS011;11311;52.192;20.900;2023-03-13T09:09:11;17.33;;;7.13;;
22284;SDS011;11311;52.192;20.900;2023-03-13T09:11:41;9.52;;;4.65;;
22284;SDS011;11311;52.192;20.900;2023-03-13T09:14:10;16.23;;;8.20;;
22284;SDS011;11311;52.192;20.900;2023-03-13T09:16:40;13.52;;;7.15;;
22284;SDS011;11311;52.192;20.900;2023-03-13T09:19:12;14.60;;;6.78;;
22284;SDS011;11311;52.192;20.900;2023-03-13T09:21:42;20.97;;;6.27;;
22284;SDS011;11311;52.192;20.900;2023-03-13T09:24:12;13.88;;;5.45;;
22284;SDS011;11311;52.192;20.900;2023-03-13T09:26:41;9.65;;;5.97;;
22284;SDS011;11311;52.192;20.900;2023-03-13T09:29:26;11.07;;;5.63;;
22284;SDS011;11311;52.192;20.900;2023-03-13T09:31:57;15.73;;;6.32;;
22284;SDS011;11311;52.192;20.900;2023-03-13T09:34:27;11.55;;;6.78;;
22284;SDS011;11311;52.192;20.900;2023-03-13T09:36:57;16.50;;;7.80;;
22284;SDS011;11311;52.192;20.900;2023-03-13T09:39:26;13.48;;;5.90;;
22284;SDS011;11311;52.192;20.900;2023-03-13T09:41:57;9.50;;;6.53;;
22284;SDS011;11311;52.192;20.900;2023-03-13T09:44:35;8.00;;;4.22;;
22284;SDS011;11311;52.192;20.900;2023-03-13T09:47:11;16.50;;;6.18;;
22284;SDS011;11311;52.192;20.900;2023-03-13T09:49:44;17.83;;;6.20;;
22284;SDS011;11311;52.192;20.900;2023-03-13T09:52:18;10.23;;;5.60;;
22284;SDS011;11311;52.192;20.900;2023-03-13T09:54:52;9.90;;;5.47;;
22284;SDS011;11311;52.192;20.900;2023-03-13T09:57:25;9.93;;;4.32;;
22284;SDS011;11311;52.192;20.900;2023-03-13T09:59:59;8.93;;;5.55;;
22284;SDS011;11311;52.192;20.900;2023-03-13T10:02:34;11.48;;;5.55;;
22284;SDS011;11311;52.192;20.900;2023-03-13T10:05:07;12.98;;;4.50;;
22284;SDS011;11311;52.192;20.900;2023-03-13T10:07:38;16.27;;;5.13;;
22284;SDS011;11311;52.192;20.900;2023-03-13T10:10:10;15.32;;;7.32;;
22284;SDS011;11311;52.192;20.900;2023-03-13T10:12:44;10.35;;;4.28;;
22284;SDS011;11311;52.192;20.900;2023-03-13T10:15:26;11.45;;;6.18;;
22284;SDS011;11311;52.192;20.900;2023-03-13T10:18:09;22.88;;;5.55;;
22284;SDS011;11311;52.192;20.900;2023-03-13T10:20:40;30.05;;;7.93;;
22284;SDS011;11311;52.192;20.900;2023-03-13T10:23:12;14.85;;;6.35;;
22284;SDS011;11311;52.192;20.900;2023-03-13T10:25:44;14.52;;;6.82;;
22284;SDS011;11311;52.192;20.900;2023-03-13T10:28:13;21.48;;;6.40;;
22284;SDS011;11311;52.192;20.900;2023-03-13T10:33:20;16.10;;;6.03;;
22284;SDS011;11311;52.192;20.900;2023-03-13T10:36:01;8.73;;;4.45;;
22284;SDS011;11311;52.192;20.900;2023-03-13T10:38:33;10.02;;;5.45;;
22284;SDS011;11311;52.192;20.900;2023-03-13T10:41:18;13.52;;;5.55;;
22284;SDS011;11311;52.192;20.900;2023-03-13T10:43:51;10.88;;;5.15;;
22284;SDS011;11311;52.192;20.900;2023-03-13T10:46:25;16.13;;;5.35;;
22284;SDS011;11311;52.192;20.900;2023-03-13T10:48:58;10.85;;;4.95;;
22284;SDS011;11311;52.192;20.900;2023-03-13T10:51:33;11.93;;;3.78;;
22284;SDS011;11311;52.192;20.900;2023-03-13T10:54:14;16.05;;;4.22;;
22284;SDS011;11311;52.192;20.900;2023-03-13T10:56:44;13.88;;;6.80;;
22284;SDS011;11311;52.192;20.900;2023-03-13T10:59:20;8.15;;;4.93;;
22284;SDS011;11311;52.192;20.900;2023-03-13T11:01:51;12.05;;;5.90;;
22284;SDS011;11311;52.192;20.900;2023-03-13T11:04:29;10.85;;;5.03;;
22284;SDS011;11311;52.192;20.900;2023-03-13T11:07:00;8.15;;;3.80;;
22284;SDS011;11311;52.192;20.900;2023-03-13T11:09:31;8.57;;;4.03;;
22284;SDS011;11311;52.192;20.900;2023-03-13T11:12:02;13.07;;;4.78;;
22284;SDS011;11311;52.192;20.900;2023-03-13T11:14:32;10.30;;;3.83;;
22284;SDS011;11311;52.192;20.900;2023-03-13T11:17:03;8.40;;;3.97;;
22284;SDS011;11311;52.192;20.900;2023-03-13T11:19:48;6.07;;;3.53;;
22284;SDS011;11311;52.192;20.900;2023-03-13T11:22:26;13.80;;;5.20;;
22284;SDS011;11311;52.192;20.900;2023-03-13T11:25:02;16.85;;;5.55;;
22284;SDS011;11311;52.192;20.900;2023-03-13T11:27:41;24.00;;;5.00;;
22284;SDS011;11311;52.192;20.900;2023-03-13T11:30:22;11.90;;;4.03;;
22284;SDS011;11311;52.192;20.900;2023-03-13T11:33:09;8.55;;;3.97;;
22284;SDS011;11311;52.192;20.900;2023-03-13T11:35:48;11.43;;;4.75;;
22284;SDS011;11311;52.192;20.900;2023-03-13T11:38:20;16.85;;;5.43;;
22284;SDS011;11311;52.192;20.900;2023-03-13T11:40:56;8.48;;;3.35;;
22284;SDS011;11311;52.192;20.900;2023-03-13T11:43:37;12.50;;;4.60;;
22284;SDS011;11311;52.192;20.900;2023-03-13T11:46:17;17.08;;;5.57;;
22284;SDS011;11311;52.192;20.900;2023-03-13T11:48:58;11.75;;;6.57;;
22284;SDS011;11311;52.192;20.900;2023-03-13T11:51:40;16.65;;;4.93;;
22284;SDS011;11311;52.192;20.900;2023-03-13T11:54:23;18.08;;;7.72;;
22284;SDS011;11311;52.192;20.900;2023-03-13T11:56:58;10.90;;;4.70;;
22284;SDS011;11311;52.192;20.900;2023-03-13T11:59:34;15.75;;;5.45;;
22284;SDS011;11311;52.192;20.900;2023-03-13T12:02:13;15.13;;;4.53;;
22284;SDS011;11311;52.192;20.900;2023-03-13T12:04:45;10.90;;;5.38;;
22284;SDS011;11311;52.192;20.900;2023-03-13T12:07:24;15.07;;;5.03;;
22284;SDS011;11311;52.192;20.900;2023-03-13T12:09:56;12.93;;;5.30;;
22284;SDS011;11311;52.192;20.900;2023-03-13T12:12:31;14.55;;;4.15;;
22284;SDS011;11311;52.192;20.900;2023-03-13T12:15:08;13.23;;;5.30;;
22284;SDS011;11311;52.192;20.900;2023-03-13T12:17:47;13.32;;;5.80;;
22284;SDS011;11311;52.192;20.900;2023-03-13T12:20:21;8.88;;;4.18;;
22284;SDS011;11311;52.192;20.900;2023-03-13T12:22:55;11.73;;;4.80;;
22284;SDS011;11311;52.192;20.900;2023-03-13T12:25:30;11.98;;;5.10;;
22284;SDS011;11311;52.192;20.900;2023-03-13T12:28:10;21.63;;;5.90;;
22284;SDS011;11311;52.192;20.900;2023-03-13T12:30:51;12.45;;;4.53;;
22284;SDS011;11311;52.192;20.900;2023-03-13T12:33:28;16.60;;;5.82;;
22284;SDS011;11311;52.192;20.900;2023-03-13T12:36:01;15.15;;;5.13;;
22284;SDS011;11311;52.192;20.900;2023-03-13T12:38:38;11.00;;;4.97;;
22284;SDS011;11311;52.192;20.900;2023-03-13T12:41:16;15.00;;;5.25;;
22284;SDS011;11311;52.192;20.900;2023-03-13T12:43:47;11.55;;;4.07;;
22284;SDS011;11311;52.192;20.900;2023-03-13T12:46:35;8.63;;;3.65;;
22284;SDS011;11311;52.192;20.900;2023-03-13T12:49:12;10.90;;;4.82;;
22284;SDS011;11311;52.192;20.900;2023-03-13T12:51:54;13.95;;;4.18;;
22284;SDS011;11311;52.192;20.900;2023-03-13T12:54:37;9.38;;;3.55;;
22284;SDS011;11311;52.192;20.900;2023-03-13T13:00:22;11.57;;;3.85;;
22284;SDS011;11311;52.192;20.900;2023-03-13T13:03:00;13.32;;;5.60;;
22284;SDS011;11311;52.192;20.900;2023-03-13T13:05:34;16.35;;;5.78;;
22284;SDS011;11311;52.192;20.900;2023-03-13T13:08:03;19.90;;;6.13;;
22284;SDS011;11311;52.192;20.900;2023-03-13T13:10:33;10.82;;;3.75;;
22284;SDS011;11311;52.192;20.900;2023-03-13T13:13:24;13.25;;;5.05;;
22284;SDS011;11311;52.192;20.900;2023-03-13T13:15:58;20.67;;;5.45;;
22284;SDS011;11311;52.192;20.900;2023-03-13T13:18:29;14.80;;;5.25;;
22284;SDS011;11311;52.192;20.900;2023-03-13T13:23:50;12.50;;;4.20;;
22284;SDS011;11311;52.192;20.900;2023-03-13T13:32:30;19.85;;;5.22;;
22284;SDS011;11311;52.192;20.900;2023-03-13T13:35:09;19.23;;;5.45;;
22284;SDS011;11311;52.192;20.900;2023-03-13T13:37:48;12.10;;;4.65;;
22284;SDS011;11311;52.192;20.900;2023-03-13T13:40:21;17.17;;;5.55;;
22284;SDS011;11311;52.192;20.900;2023-03-13T13:42:54;10.27;;;3.88;;
22284;SDS011;11311;52.192;20.900;2023-03-13T13:45:30;18.27;;;5.15;;
22284;SDS011;11311;52.192;20.900;2023-03-13T13:48:22;8.35;;;3.65;;
22284;SDS011;11311;52.192;20.900;2023-03-13T13:51:18;11.40;;;4.93;;
22284;SDS011;11311;52.192;20.900;2023-03-13T13:53:55;16.00;;;5.13;;
22284;SDS011;11311;52.192;20.900;2023-03-13T13:56:39;8.30;;;5.30;;
22284;SDS011;11311;52.192;20.900;2023-03-13T13:59:23;9.55;;;4.43;;
22284;SDS011;11311;52.192;20.900;2023-03-13T14:02:11;15.13;;;5.78;;
22284;SDS011;11311;52.192;20.900;2023-03-13T14:04:45;11.45;;;3.20;;
22284;SDS011;11311;52.192;20.900;2023-03-13T14:07:17;24.02;;;6.13;;
22284;SDS011;11311;52.192;20.900;2023-03-13T14:09:53;10.88;;;3.95;;
22284;SDS011;11311;52.192;20.900;2023-03-13T14:12:28;14.60;;;3.95;;
22284;SDS011;11311;52.192;20.900;2023-03-13T14:15:07;7.60;;;4.20;;
22284;SDS011;11311;52.192;20.900;2023-03-13T14:17:40;11.60;;;4.53;;
22284;SDS011;11311;52.192;20.900;2023-03-13T14:20:18;11.73;;;4.05;;
22284;SDS011;11311;52.192;20.900;2023-03-13T14:22:49;7.93;;;3.92;;
22284;SDS011;11311;52.192;20.900;2023-03-13T14:25:19;14.52;;;5.05;;
22284;SDS011;11311;52.192;20.900;2023-03-13T14:27:49;20.50;;;8.73;;
22284;SDS011;11311;52.192;20.900;2023-03-13T14:30:21;27.08;;;9.70;;
22284;SDS011;11311;52.192;20.900;2023-03-13T14:32:51;19.63;;;8.00;;
22284;SDS011;11311;52.192;20.900;2023-03-13T14:35:20;21.27;;;8.52;;
22284;SDS011;11311;52.192;20.900;2023-03-13T14:37:50;12.77;;;4.40;;
22284;SDS011;11311;52.192;20.900;2023-03-13T14:40:22;10.35;;;3.85;;
22284;SDS011;11311;52.192;20.900;2023-03-13T14:42:54;20.65;;;4.75;;
22284;SDS011;11311;52.192;20.900;2023-03-13T14:45:26;13.50;;;6.25;;
22284;SDS011;11311;52.192;20.900;2023-03-13T14:48:00;19.17;;;4.80;;
22284;SDS011;11311;52.192;20.900;2023-03-13T14:50:30;17.63;;;5.30;;
22284;SDS011;11311;52.192;20.900;2023-03-13T14:53:00;15.20;;;5.00;;
22284;SDS011;11311;52.192;20.900;2023-03-13T14:55:32;17.48;;;5.93;;
22284;SDS011;11311;52.192;20.900;2023-03-13T15:00:56;7.90;;;3.28;;
22284;SDS011;11311;52.192;20.900;2023-03-13T15:03:27;11.15;;;4.43;;
22284;SDS011;11311;52.192;20.900;2023-03-13T15:08:46;9.23;;;2.95;;
22284;SDS011;11311;52.192;20.900;2023-03-13T15:11:25;8.18;;;3.13;;
22284;SDS011;11311;52.192;20.900;2023-03-13T15:13:55;9.57;;;4.15;;
22284;SDS011;11311;52.192;20.900;2023-03-13T15:16:26;10.10;;;3.47;;
22284;SDS011;11311;52.192;20.900;2023-03-13T15:18:55;16.75;;;4.82;;
22284;SDS011;11311;52.192;20.900;2023-03-13T15:21:26;14.70;;;4.53;;
22284;SDS011;11311;52.192;20.900;2023-03-13T15:23:58;8.40;;;2.80;;
22284;SDS011;11311;52.192;20.900;2023-03-13T15:26:28;7.13;;;4.40;;
22284;SDS011;11311;52.192;20.900;2023-03-13T15:28:57;12.38;;;3.20;;
22284;SDS011;11311;52.192;20.900;2023-03-13T15:31:29;12.55;;;3.00;;